createdAt,value
2022-11-29T00:00:41.590Z,10.43
2022-11-29T00:01:43.516Z,9.63
2022-11-29T00:02:45.262Z,9.03
2022-11-29T00:03:46.908Z,8.00
2022-11-29T00:04:48.519Z,8.63
2022-11-29T00:05:51.598Z,8.70
2022-11-29T00:06:53.100Z,9.37
2022-11-29T00:07:54.714Z,9.90
2022-11-29T00:08:59.068Z,9.97
2022-11-29T00:10:00.699Z,10.60
2022-11-29T00:11:11.358Z,10.87
2022-11-29T00:12:12.898Z,10.83
2022-11-29T00:13:14.767Z,10.30
2022-11-29T00:14:18.704Z,10.30
2022-11-29T00:15:20.307Z,10.23
2022-11-29T00:16:21.938Z,10.20
2022-11-29T00:17:23.538Z,11.00
2022-11-29T00:18:25.098Z,10.13
2022-11-29T00:19:26.646Z,10.93
2022-11-29T00:20:28.193Z,10.77
2022-11-29T00:21:29.841Z,10.63
2022-11-29T00:22:31.358Z,10.10
2022-11-29T00:23:33.034Z,11.17
2022-11-29T00:24:34.778Z,10.80
2022-11-29T00:25:38.601Z,11.13
2022-11-29T00:26:40.281Z,11.70
2022-11-29T00:27:41.825Z,12.13
2022-11-29T00:28:43.362Z,11.60
2022-11-29T00:29:44.919Z,11.17
2022-11-29T00:30:47.318Z,11.87
2022-11-29T00:31:49.103Z,10.83
2022-11-29T00:32:50.705Z,10.77
2022-11-29T00:33:52.630Z,11.40
2022-11-29T00:34:56.397Z,11.47
2022-11-29T00:36:01.598Z,11.40
2022-11-29T00:37:03.277Z,12.00
2022-11-29T00:38:04.837Z,12.23
2022-11-29T00:39:07.223Z,11.60
2022-11-29T00:40:09.121Z,12.10
2022-11-29T00:41:11.714Z,13.13
2022-11-29T00:42:13.365Z,12.83
2022-11-29T00:43:14.990Z,11.30
2022-11-29T00:44:20.215Z,12.93
2022-11-29T00:45:22.234Z,12.83
2022-11-29T00:46:25.157Z,11.93
2022-11-29T00:47:26.860Z,11.40
2022-11-29T00:48:28.561Z,12.83
2022-11-29T00:49:30.097Z,12.30
2022-11-29T00:50:31.679Z,11.93
2022-11-29T00:51:33.407Z,12.07
2022-11-29T00:52:35.161Z,12.03
2022-11-29T00:53:37.848Z,12.97
2022-11-29T00:54:39.398Z,10.37
2022-11-29T00:55:41.045Z,12.57
2022-11-29T00:56:42.987Z,10.30
2022-11-29T00:57:44.539Z,9.07
2022-11-29T00:58:46.228Z,9.50
2022-11-29T00:59:47.793Z,8.77
2022-11-29T01:00:49.753Z,8.37
2022-11-29T01:01:51.374Z,8.50
2022-11-29T01:02:53.016Z,8.43
2022-11-29T01:03:54.664Z,8.13
2022-11-29T01:04:56.232Z,7.37
2022-11-29T01:06:09.974Z,7.53
2022-11-29T01:07:11.611Z,7.53
2022-11-29T01:08:14.353Z,7.93
2022-11-29T01:09:15.889Z,7.90
2022-11-29T01:10:17.522Z,6.40
2022-11-29T01:11:22.341Z,7.23
2022-11-29T01:12:23.921Z,7.10
2022-11-29T01:13:25.468Z,7.20
2022-11-29T01:14:27.067Z,7.43
2022-11-29T01:15:28.888Z,7.80
2022-11-29T01:16:31.668Z,7.77
2022-11-29T01:17:36.877Z,8.67
2022-11-29T01:18:39.109Z,8.23
2022-11-29T01:19:40.935Z,9.10
2022-11-29T01:20:43.961Z,10.53
2022-11-29T01:21:45.525Z,9.77
2022-11-29T01:22:47.135Z,10.23
2022-11-29T01:23:50.321Z,10.93
2022-11-29T01:24:51.961Z,11.50
2022-11-29T01:26:02.187Z,11.93
2022-11-29T01:27:03.706Z,10.53
2022-11-29T01:28:05.297Z,11.73
2022-11-29T01:29:06.945Z,11.93
2022-11-29T01:30:10.163Z,10.90
2022-11-29T01:31:15.555Z,11.50
2022-11-29T01:32:17.296Z,11.37
2022-11-29T01:33:18.999Z,10.77
2022-11-29T01:34:20.527Z,11.07
2022-11-29T01:35:22.042Z,10.63
2022-11-29T01:36:24.787Z,11.13
2022-11-29T01:37:29.108Z,9.97
2022-11-29T01:38:31.115Z,10.43
2022-11-29T01:39:32.644Z,11.00
2022-11-29T01:40:34.237Z,9.70
2022-11-29T01:41:37.778Z,10.17
2022-11-29T01:42:39.308Z,9.77
2022-11-29T01:44:07.049Z,9.43
2022-11-29T01:45:28.973Z,9.93
2022-11-29T01:46:33.373Z,9.93
2022-11-29T01:47:40.975Z,10.27
2022-11-29T01:48:42.542Z,11.40
2022-11-29T01:49:49.923Z,11.00
2022-11-29T01:50:54.627Z,10.60
2022-11-29T01:52:02.438Z,11.63
2022-11-29T01:53:04.798Z,11.33
2022-11-29T01:54:08.685Z,11.47
2022-11-29T01:55:10.499Z,10.77
2022-11-29T01:56:14.426Z,10.17
2022-11-29T01:57:16.591Z,10.53
2022-11-29T01:58:18.352Z,10.53
2022-11-29T01:59:23.379Z,10.47
2022-11-29T02:00:25.074Z,10.73
2022-11-29T02:01:26.738Z,10.67
2022-11-29T02:02:35.923Z,10.10
2022-11-29T02:03:37.677Z,9.47
2022-11-29T02:04:42.390Z,10.03
2022-11-29T02:05:54.975Z,9.93
2022-11-29T02:06:56.469Z,9.10
2022-11-29T02:08:00.398Z,9.23
2022-11-29T02:09:02.613Z,9.10
2022-11-29T02:10:05.900Z,8.97
2022-11-29T02:11:35.682Z,8.93
2022-11-29T02:12:50.289Z,8.63
2022-11-29T02:14:10.745Z,8.60
2022-11-29T02:15:45.475Z,9.60
2022-11-29T02:17:14.709Z,8.87
2022-11-29T02:18:48.677Z,10.90
2022-11-29T02:20:08.978Z,10.83
2022-11-29T02:21:20.002Z,10.93
2022-11-29T02:22:43.475Z,10.70
2022-11-29T02:23:45.007Z,10.73
2022-11-29T02:25:11.825Z,10.47
2022-11-29T02:26:31.870Z,11.00
2022-11-29T02:27:55.300Z,10.13
2022-11-29T02:29:05.740Z,11.07
2022-11-29T02:30:38.984Z,10.37
2022-11-29T02:32:04.268Z,11.10
2022-11-29T02:33:12.095Z,10.50
2022-11-29T02:34:39.865Z,10.37
2022-11-29T02:36:09.534Z,10.33
2022-11-29T02:37:46.326Z,10.10
2022-11-29T02:39:15.674Z,10.27
2022-11-29T02:40:28.522Z,10.03
2022-11-29T02:41:33.107Z,10.50
2022-11-29T02:42:55.648Z,10.30
2022-11-29T02:44:26.005Z,10.67
2022-11-29T02:45:36.797Z,9.27
2022-11-29T02:47:01.251Z,10.23
2022-11-29T02:48:11.541Z,10.33
2022-11-29T02:49:28.207Z,10.70
2022-11-29T02:50:29.689Z,10.00
2022-11-29T02:51:42.482Z,9.83
2022-11-29T02:52:59.875Z,9.70
2022-11-29T02:54:26.509Z,10.63
2022-11-29T02:55:38.450Z,10.30
2022-11-29T02:56:46.719Z,9.70
2022-11-29T02:58:17.469Z,10.53
2022-11-29T02:59:37.190Z,9.47
2022-11-29T03:00:47.095Z,9.70
2022-11-29T03:02:27.581Z,9.50
2022-11-29T03:03:43.608Z,9.43
2022-11-29T03:05:14.062Z,9.47
2022-11-29T03:06:31.007Z,8.83
2022-11-29T03:07:56.108Z,9.60
2022-11-29T03:09:09.558Z,9.50
2022-11-29T03:10:33.769Z,9.47
2022-11-29T03:11:51.034Z,9.77
2022-11-29T03:12:54.454Z,9.07
2022-11-29T03:14:13.246Z,9.20
2022-11-29T03:15:30.313Z,9.80
2022-11-29T03:16:59.424Z,10.03
2022-11-29T03:18:06.825Z,10.17
2022-11-29T03:19:29.746Z,10.23
2022-11-29T03:21:01.650Z,10.20
2022-11-29T03:22:12.407Z,10.33
2022-11-29T03:23:17.716Z,9.47
2022-11-29T03:24:46.548Z,10.17
2022-11-29T03:26:21.064Z,9.13
2022-11-29T03:27:43.685Z,9.13
2022-11-29T03:29:07.149Z,9.70
2022-11-29T03:30:12.555Z,8.80
2022-11-29T03:31:21.602Z,9.53
2022-11-29T03:32:34.606Z,9.00
2022-11-29T03:33:50.847Z,9.43
2022-11-29T03:35:28.281Z,9.73
2022-11-29T03:36:41.193Z,9.53
2022-11-29T03:37:51.955Z,8.97
2022-11-29T03:38:58.619Z,8.93
2022-11-29T03:40:09.803Z,9.90
2022-11-29T03:41:28.323Z,9.30
2022-11-29T03:42:45.485Z,9.33
2022-11-29T03:44:07.211Z,10.07
2022-11-29T03:45:18.725Z,8.93
2022-11-29T03:46:57.244Z,9.37
2022-11-29T03:48:33.067Z,9.83
2022-11-29T03:49:47.685Z,9.53
2022-11-29T03:50:57.691Z,9.43
2022-11-29T03:52:21.323Z,9.70
2022-11-29T03:53:47.244Z,9.33
2022-11-29T03:55:04.038Z,9.20
2022-11-29T03:56:23.207Z,9.50
2022-11-29T03:57:34.921Z,9.50
2022-11-29T03:58:42.478Z,8.80
2022-11-29T04:00:05.705Z,9.37
2022-11-29T04:01:24.920Z,9.43
2022-11-29T04:02:44.438Z,10.07
2022-11-29T04:04:23.335Z,10.67
2022-11-29T04:05:46.527Z,10.27
2022-11-29T04:07:08.907Z,9.67
2022-11-29T04:08:37.786Z,9.93
2022-11-29T04:10:01.191Z,49.43
2022-11-29T04:11:08.858Z,10.43
2022-11-29T04:12:40.492Z,10.87
2022-11-29T04:14:00.563Z,10.30
2022-11-29T04:15:39.363Z,11.20
2022-11-29T04:16:43.843Z,10.10
2022-11-29T04:17:48.217Z,10.43
2022-11-29T04:19:17.589Z,10.93
2022-11-29T04:20:54.682Z,10.33
2022-11-29T04:22:19.845Z,10.80
2022-11-29T04:23:46.714Z,10.97
2022-11-29T04:25:13.087Z,10.70
2022-11-29T04:26:35.029Z,10.53
2022-11-29T04:27:49.576Z,10.87
2022-11-29T04:29:15.638Z,12.10
2022-11-29T04:30:23.654Z,11.37
2022-11-29T04:32:02.740Z,10.80
2022-11-29T04:33:23.024Z,10.27
2022-11-29T04:34:43.727Z,10.90
2022-11-29T04:36:22.943Z,11.80
2022-11-29T04:37:45.133Z,11.10
2022-11-29T04:39:01.678Z,11.83
2022-11-29T04:40:14.930Z,11.43
2022-11-29T04:41:55.555Z,11.03
2022-11-29T04:43:15.727Z,11.97
2022-11-29T04:44:35.836Z,12.07
2022-11-29T04:45:40.445Z,11.73
2022-11-29T04:46:54.828Z,11.07
2022-11-29T04:48:22.747Z,11.43
2022-11-29T04:49:56.738Z,11.13
2022-11-29T04:51:01.213Z,10.50
2022-11-29T04:52:28.091Z,10.77
2022-11-29T04:54:04.496Z,10.87
2022-11-29T04:55:31.230Z,11.43
2022-11-29T04:56:47.117Z,11.73
2022-11-29T04:57:57.655Z,12.13
2022-11-29T04:59:07.819Z,12.83
2022-11-29T05:00:12.143Z,12.97
2022-11-29T05:01:41.374Z,12.77
2022-11-29T05:03:13.597Z,13.87
2022-11-29T05:04:28.179Z,11.97
2022-11-29T05:05:35.698Z,12.27
2022-11-29T05:06:55.989Z,11.97
2022-11-29T05:08:03.460Z,12.37
2022-11-29T05:09:33.158Z,11.47
2022-11-29T05:11:14.368Z,12.07
2022-11-29T05:12:29.665Z,11.33
2022-11-29T05:13:54.529Z,11.87
2022-11-29T05:15:29.989Z,11.47
2022-11-29T05:17:04.369Z,12.07
2022-11-29T05:18:10.061Z,11.70
2022-11-29T05:19:18.142Z,12.67
2022-11-29T05:20:38.470Z,12.50
2022-11-29T05:22:28.059Z,12.37
2022-11-29T05:23:47.955Z,12.27
2022-11-29T05:25:27.676Z,12.40
2022-11-29T05:26:31.756Z,11.47
2022-11-29T05:27:49.283Z,11.63
2022-11-29T05:29:11.911Z,10.73
2022-11-29T05:30:20.938Z,11.00
2022-11-29T05:31:57.819Z,11.07
2022-11-29T05:33:31.636Z,12.73
2022-11-29T05:34:52.025Z,11.53
2022-11-29T05:36:03.380Z,12.83
2022-11-29T05:37:19.330Z,12.60
2022-11-29T05:38:45.378Z,13.27
2022-11-29T05:39:49.526Z,15.67
2022-11-29T05:41:17.181Z,15.53
2022-11-29T05:42:32.487Z,16.70
2022-11-29T05:43:59.858Z,16.30
2022-11-29T05:45:10.559Z,17.10
2022-11-29T05:46:27.391Z,16.17
2022-11-29T05:48:04.657Z,17.60
2022-11-29T05:49:27.480Z,16.37
2022-11-29T05:50:37.990Z,13.90
2022-11-29T05:51:53.768Z,14.13
2022-11-29T05:53:06.999Z,12.50
2022-11-29T05:54:36.974Z,12.80
2022-11-29T05:56:12.612Z,13.40
2022-11-29T05:57:47.587Z,12.80
2022-11-29T05:59:12.879Z,13.10
2022-11-29T06:00:17.499Z,12.60
2022-11-29T06:01:26.155Z,12.63
2022-11-29T06:02:27.860Z,14.03
2022-11-29T06:03:41.874Z,14.00
2022-11-29T06:05:03.656Z,13.97
2022-11-29T06:06:35.434Z,13.80
2022-11-29T06:07:43.064Z,13.97
2022-11-29T06:08:48.478Z,13.80
2022-11-29T06:10:17.804Z,13.10
2022-11-29T06:11:52.184Z,12.90
2022-11-29T06:13:27.271Z,13.30
2022-11-29T06:14:50.466Z,13.30
2022-11-29T06:16:04.177Z,14.77
2022-11-29T06:17:38.783Z,13.70
2022-11-29T06:18:55.162Z,13.20
2022-11-29T06:20:04.344Z,13.70
2022-11-29T06:21:17.382Z,12.97
2022-11-29T06:22:21.329Z,12.70
2022-11-29T06:23:42.956Z,12.57
2022-11-29T06:25:05.016Z,13.53
2022-11-29T06:26:13.143Z,12.50
2022-11-29T06:27:26.679Z,12.43
2022-11-29T06:29:02.227Z,12.33
2022-11-29T06:30:13.478Z,12.47
2022-11-29T06:31:33.940Z,12.40
2022-11-29T06:32:44.658Z,12.47
2022-11-29T06:34:04.886Z,11.87
2022-11-29T06:35:47.592Z,12.00
2022-11-29T06:37:05.463Z,11.37
2022-11-29T06:38:28.513Z,11.27
2022-11-29T06:39:30.338Z,10.47
2022-11-29T06:40:33.132Z,11.27
2022-11-29T06:41:35.059Z,11.03
2022-11-29T06:42:36.594Z,10.47
2022-11-29T06:43:38.754Z,12.03
2022-11-29T06:44:40.651Z,11.13
2022-11-29T06:45:50.237Z,10.50
2022-11-29T06:46:53.884Z,9.83
2022-11-29T06:48:03.582Z,10.33
2022-11-29T06:49:27.916Z,11.07
2022-11-29T06:50:38.159Z,10.63
2022-11-29T06:51:58.045Z,10.97
2022-11-29T06:53:37.877Z,11.00
2022-11-29T06:55:15.449Z,12.10
2022-11-29T06:56:55.209Z,11.07
2022-11-29T06:58:55.310Z,11.80
2022-11-29T07:00:18.849Z,10.17
2022-11-29T07:01:31.510Z,11.27
2022-11-29T07:02:54.188Z,10.87
2022-11-29T07:04:01.663Z,10.43
2022-11-29T07:05:18.631Z,10.87
2022-11-29T07:06:27.356Z,11.10
2022-11-29T07:07:29.302Z,10.67
2022-11-29T07:08:31.162Z,11.23
2022-11-29T07:09:34.642Z,11.30
2022-11-29T07:10:38.787Z,11.33
2022-11-29T07:11:40.844Z,11.43
2022-11-29T07:12:43.000Z,12.23
2022-11-29T07:13:44.829Z,11.57
2022-11-29T07:14:52.380Z,12.00
2022-11-29T07:16:19.910Z,13.87
2022-11-29T07:17:36.406Z,12.67
2022-11-29T07:19:07.637Z,12.80
2022-11-29T07:20:31.307Z,14.20
2022-11-29T07:21:51.702Z,13.90
2022-11-29T07:23:02.344Z,16.60
2022-11-29T07:24:51.057Z,27.17
2022-11-29T07:26:07.817Z,21.53
2022-11-29T07:27:32.760Z,25.60
2022-11-29T07:29:03.764Z,28.17
2022-11-29T07:30:28.221Z,30.67
2022-11-29T07:31:48.842Z,29.87
2022-11-29T07:33:09.101Z,35.20
2022-11-29T07:34:13.605Z,31.73
2022-11-29T07:35:30.746Z,30.47
2022-11-29T07:36:35.344Z,33.10
2022-11-29T07:37:48.018Z,30.17
2022-11-29T07:39:10.945Z,32.00
2022-11-29T07:40:18.218Z,30.53
2022-11-29T07:41:57.321Z,26.80
2022-11-29T07:43:17.115Z,28.77
2022-11-29T07:44:24.598Z,30.40
2022-11-29T07:45:29.934Z,29.07
2022-11-29T07:46:31.501Z,27.67
2022-11-29T07:47:35.999Z,28.10
2022-11-29T07:48:37.861Z,28.27
2022-11-29T07:49:39.389Z,28.17
2022-11-29T07:50:41.341Z,27.47
2022-11-29T07:51:43.424Z,25.97
2022-11-29T07:52:44.975Z,26.73
2022-11-29T07:53:46.755Z,30.20
2022-11-29T07:54:48.648Z,26.37
2022-11-29T07:55:50.531Z,25.40
2022-11-29T07:56:52.118Z,27.47
2022-11-29T07:57:53.663Z,24.80
2022-11-29T07:58:55.280Z,24.67
2022-11-29T07:59:56.790Z,25.40
2022-11-29T08:00:58.425Z,24.53
2022-11-29T08:02:00.055Z,25.53
2022-11-29T08:03:01.709Z,24.83
2022-11-29T08:04:03.433Z,23.60
2022-11-29T08:05:05.280Z,23.73
2022-11-29T08:06:07.006Z,22.90
2022-11-29T08:07:08.577Z,23.57
2022-11-29T08:08:10.174Z,24.57
2022-11-29T08:09:11.838Z,25.10
2022-11-29T08:10:15.540Z,24.70
2022-11-29T08:11:17.297Z,24.20
2022-11-29T08:12:18.853Z,25.33
2022-11-29T08:13:21.226Z,23.97
2022-11-29T08:14:22.837Z,25.23
2022-11-29T08:15:25.485Z,23.87
2022-11-29T08:16:27.294Z,24.70
2022-11-29T08:17:28.917Z,26.60
2022-11-29T08:18:30.516Z,24.07
2022-11-29T08:19:32.178Z,24.23
2022-11-29T08:20:33.708Z,26.03
2022-11-29T08:21:35.222Z,24.40
2022-11-29T08:22:36.838Z,26.77
2022-11-29T08:23:38.380Z,24.30
2022-11-29T08:24:39.988Z,26.57
2022-11-29T08:25:41.898Z,28.43
2022-11-29T08:26:43.519Z,26.67
2022-11-29T08:27:45.060Z,26.80
2022-11-29T08:28:51.898Z,28.17
2022-11-29T08:29:53.483Z,28.73
2022-11-29T08:31:06.326Z,27.53
2022-11-29T08:32:09.029Z,26.77
2022-11-29T08:33:10.613Z,25.47
2022-11-29T08:34:12.655Z,25.80
2022-11-29T08:35:14.331Z,25.27
2022-11-29T08:36:20.214Z,24.37
2022-11-29T08:37:21.880Z,25.33
2022-11-29T08:38:23.434Z,26.30
2022-11-29T08:39:25.099Z,27.30
2022-11-29T08:40:26.733Z,28.33
2022-11-29T08:41:29.671Z,28.93
2022-11-29T08:42:31.249Z,27.50
2022-11-29T08:43:33.131Z,30.47
2022-11-29T08:44:34.834Z,29.53
2022-11-29T08:45:36.487Z,29.43
2022-11-29T08:46:56.758Z,32.17
2022-11-29T08:47:58.339Z,30.83
2022-11-29T08:49:00.075Z,30.53
2022-11-29T08:50:06.243Z,28.20
2022-11-29T08:51:07.832Z,31.13
2022-11-29T08:52:27.906Z,32.00
2022-11-29T08:53:42.105Z,32.33
2022-11-29T08:54:44.135Z,32.47
2022-11-29T08:55:46.755Z,34.10
2022-11-29T08:58:13.297Z,32.77
2022-11-29T08:59:14.859Z,34.73
2022-11-29T09:00:17.838Z,33.03
2022-11-29T09:01:20.315Z,33.63
2022-11-29T09:02:21.956Z,33.77
2022-11-29T09:03:42.170Z,34.53
2022-11-29T09:04:43.853Z,32.33
2022-11-29T09:05:45.536Z,31.57
2022-11-29T09:06:49.632Z,28.20
2022-11-29T09:07:51.297Z,28.97
2022-11-29T09:08:56.520Z,28.43
2022-11-29T09:09:58.197Z,25.00
2022-11-29T09:10:59.900Z,24.13
2022-11-29T09:12:01.479Z,25.47
2022-11-29T09:13:03.042Z,22.93
2022-11-29T09:14:07.549Z,23.27
2022-11-29T09:15:10.663Z,25.23
2022-11-29T09:16:15.704Z,27.07
2022-11-29T09:17:17.217Z,27.17
2022-11-29T09:18:18.750Z,30.00
2022-11-29T09:19:20.335Z,27.13
2022-11-29T09:20:22.013Z,26.57
2022-11-29T09:21:25.990Z,26.07
2022-11-29T09:22:27.585Z,26.20
2022-11-29T09:23:29.213Z,25.10
2022-11-29T09:24:30.929Z,24.40
2022-11-29T09:25:32.478Z,23.80
2022-11-29T09:26:36.907Z,21.80
2022-11-29T09:27:38.505Z,21.77
2022-11-29T09:28:40.059Z,21.00
2022-11-29T09:29:41.639Z,20.60
2022-11-29T09:30:43.209Z,19.60
2022-11-29T09:31:45.338Z,18.43
2022-11-29T09:32:47.385Z,18.87
2022-11-29T09:33:49.123Z,14.83
2022-11-29T09:34:50.741Z,11.97
2022-11-29T09:35:58.062Z,11.17
2022-11-29T09:36:59.626Z,9.60
2022-11-29T09:38:01.298Z,9.13
2022-11-29T09:39:03.400Z,10.33
2022-11-29T09:40:05.625Z,11.33
2022-11-29T09:41:37.833Z,9.40
2022-11-29T09:42:55.646Z,12.27
2022-11-29T09:44:15.915Z,12.73
2022-11-29T09:45:20.809Z,8.57
2022-11-29T09:46:22.317Z,5.87
2022-11-29T09:47:26.918Z,5.33
2022-11-29T09:48:47.232Z,6.90
2022-11-29T09:50:10.532Z,12.17
2022-11-29T09:51:15.425Z,14.57
2022-11-29T09:52:42.955Z,13.13
2022-11-29T09:54:21.195Z,13.27
2022-11-29T09:55:37.850Z,8.63
2022-11-29T09:56:44.512Z,7.87
2022-11-29T09:57:48.118Z,7.87
2022-11-29T09:58:57.886Z,6.83
2022-11-29T10:00:05.047Z,9.03
2022-11-29T10:01:10.848Z,9.00
2022-11-29T10:02:22.365Z,10.70
2022-11-29T10:03:30.329Z,11.33
2022-11-29T10:04:41.043Z,9.97
2022-11-29T10:05:53.868Z,8.00
2022-11-29T10:07:14.651Z,7.47
2022-11-29T10:08:27.484Z,7.33
2022-11-29T10:09:37.882Z,7.63
2022-11-29T10:10:50.902Z,7.60
2022-11-29T10:11:55.249Z,7.70
2022-11-29T10:13:05.082Z,7.83
2022-11-29T10:14:16.429Z,7.97
2022-11-29T10:15:27.413Z,7.97
2022-11-29T10:16:43.815Z,6.70
2022-11-29T10:18:27.327Z,6.90
2022-11-29T10:19:41.865Z,6.50
2022-11-29T10:20:49.061Z,7.47
2022-11-29T10:22:03.597Z,7.03
2022-11-29T10:23:26.601Z,7.67
2022-11-29T10:24:29.529Z,7.17
2022-11-29T10:25:37.683Z,7.30
2022-11-29T10:26:39.333Z,7.67
2022-11-29T10:27:40.938Z,7.23
2022-11-29T10:28:47.678Z,10.10
2022-11-29T10:29:51.325Z,11.20
2022-11-29T10:30:58.476Z,9.43
2022-11-29T10:32:10.016Z,10.47
2022-11-29T10:33:28.947Z,9.73
2022-11-29T10:34:30.936Z,10.67
2022-11-29T10:35:33.572Z,10.13
2022-11-29T10:36:48.419Z,10.37
2022-11-29T10:38:28.555Z,10.23
2022-11-29T10:39:42.373Z,10.27
2022-11-29T10:40:47.611Z,10.30
2022-11-29T10:41:56.678Z,9.93
2022-11-29T10:42:58.561Z,9.17
2022-11-29T10:44:00.488Z,8.77
2022-11-29T10:45:02.995Z,7.80
2022-11-29T10:46:06.512Z,7.77
2022-11-29T10:47:11.088Z,6.83
2022-11-29T10:48:16.966Z,6.87
2022-11-29T10:49:21.787Z,5.93
2022-11-29T10:50:28.976Z,5.87
2022-11-29T10:51:32.041Z,7.10
2022-11-29T10:52:34.028Z,6.13
2022-11-29T10:53:38.537Z,6.80
2022-11-29T10:54:44.471Z,6.47
2022-11-29T10:55:46.187Z,6.67
2022-11-29T10:56:48.466Z,6.80
2022-11-29T10:58:13.682Z,5.97
2022-11-29T10:59:23.520Z,5.80
2022-11-29T11:00:25.650Z,5.47
2022-11-29T11:01:29.129Z,5.40
2022-11-29T11:02:31.823Z,5.87
2022-11-29T11:03:52.842Z,5.30
2022-11-29T11:04:54.874Z,5.40
2022-11-29T11:06:07.137Z,5.50
2022-11-29T11:07:23.052Z,4.97
2022-11-29T11:08:26.369Z,4.67
2022-11-29T11:09:34.296Z,5.03
2022-11-29T11:10:35.960Z,5.30
2022-11-29T11:11:38.688Z,4.60
2022-11-29T11:12:40.342Z,3.63
2022-11-29T11:13:42.242Z,3.73
2022-11-29T11:14:45.427Z,3.90
2022-11-29T11:15:47.244Z,4.10
2022-11-29T11:16:49.033Z,3.53
2022-11-29T11:17:59.882Z,4.20
2022-11-29T11:19:27.649Z,4.43
2022-11-29T11:20:31.738Z,4.27
2022-11-29T11:21:38.605Z,4.27
2022-11-29T11:22:41.201Z,4.10
2022-11-29T11:23:46.818Z,4.50
2022-11-29T11:24:57.369Z,4.00
2022-11-29T11:26:03.053Z,4.03
2022-11-29T11:27:04.711Z,3.97
2022-11-29T11:28:15.400Z,3.90
2022-11-29T11:29:25.075Z,3.20
2022-11-29T11:30:29.444Z,3.50
2022-11-29T11:31:34.780Z,3.40
2022-11-29T11:32:37.042Z,3.87
2022-11-29T11:33:41.517Z,3.80
2022-11-29T11:34:52.672Z,3.27
2022-11-29T11:36:01.581Z,3.83
2022-11-29T11:37:15.486Z,3.80
2022-11-29T11:38:17.834Z,3.07
2022-11-29T11:39:22.072Z,3.23
2022-11-29T11:40:29.810Z,2.80
2022-11-29T11:41:49.936Z,3.00
2022-11-29T11:42:51.649Z,3.80
2022-11-29T11:43:58.526Z,3.50
2022-11-29T11:45:01.252Z,3.50
2022-11-29T11:46:03.015Z,3.37
2022-11-29T11:47:24.309Z,3.43
2022-11-29T11:48:27.490Z,3.20
2022-11-29T11:50:08.128Z,2.80
2022-11-29T11:51:24.474Z,3.00
2022-11-29T11:52:39.793Z,3.00
2022-11-29T11:53:44.228Z,3.50
2022-11-29T11:54:51.332Z,3.23
2022-11-29T11:56:03.807Z,3.23
2022-11-29T11:57:15.544Z,3.30
2022-11-29T11:58:22.034Z,3.17
2022-11-29T11:59:26.665Z,3.13
2022-11-29T12:01:20.542Z,3.10
2022-11-29T12:02:35.891Z,2.90
2022-11-29T12:03:59.188Z,3.17
2022-11-29T12:05:02.869Z,2.80
2022-11-29T12:06:38.358Z,3.27
2022-11-29T12:08:09.856Z,3.20
2022-11-29T12:09:26.268Z,2.80
2022-11-29T12:10:31.847Z,2.80
2022-11-29T12:11:50.498Z,2.87
2022-11-29T12:12:53.620Z,2.80
2022-11-29T12:13:59.227Z,3.37
2022-11-29T12:15:24.852Z,2.70
2022-11-29T12:16:34.297Z,2.97
2022-11-29T12:17:49.977Z,3.00
2022-11-29T12:18:57.270Z,2.73
2022-11-29T12:20:17.803Z,3.00
2022-11-29T12:21:27.547Z,2.67
2022-11-29T12:22:37.660Z,3.20
2022-11-29T12:24:12.946Z,3.20
2022-11-29T12:25:22.085Z,3.00
2022-11-29T12:27:52.383Z,2.97
2022-11-29T12:28:54.134Z,3.37
2022-11-29T12:29:56.767Z,2.60
2022-11-29T12:31:44.663Z,3.23
2022-11-29T12:33:00.085Z,2.97
2022-11-29T12:34:22.628Z,2.60
2022-11-29T12:35:37.514Z,2.77
2022-11-29T12:37:05.631Z,3.37
2022-11-29T12:38:34.000Z,2.90
2022-11-29T12:39:43.331Z,3.03
2022-11-29T12:41:07.091Z,3.33
2022-11-29T12:42:39.470Z,3.33
2022-11-29T12:44:05.267Z,3.07
2022-11-29T12:45:40.145Z,3.30
2022-11-29T12:46:54.377Z,3.30
2022-11-29T12:48:06.614Z,2.80
2022-11-29T12:49:34.443Z,3.17
2022-11-29T12:51:06.754Z,3.20
2022-11-29T12:52:34.671Z,3.20
2022-11-29T12:54:33.145Z,3.00
2022-11-29T12:55:46.417Z,3.20
2022-11-29T12:57:13.457Z,3.20
2022-11-29T12:58:45.612Z,3.17
2022-11-29T13:00:03.579Z,3.37
2022-11-29T13:01:21.935Z,3.33
2022-11-29T13:02:35.418Z,3.40
2022-11-29T13:03:47.307Z,3.20
2022-11-29T13:05:01.560Z,3.30
2022-11-29T13:06:29.623Z,4.13
2022-11-29T13:08:07.998Z,3.73
2022-11-29T13:09:27.014Z,3.87
2022-11-29T13:10:49.651Z,4.10
2022-11-29T13:11:54.219Z,3.93
2022-11-29T13:13:03.517Z,4.00
2022-11-29T13:14:40.999Z,4.30
2022-11-29T13:15:43.251Z,3.80
2022-11-29T13:17:02.755Z,4.37
2022-11-29T13:18:31.319Z,4.27
2022-11-29T13:19:44.785Z,3.87
2022-11-29T13:20:57.274Z,4.30
2022-11-29T13:22:20.175Z,4.27
2022-11-29T13:24:07.948Z,3.53
2022-11-29T13:25:21.322Z,4.60
2022-11-29T13:26:26.204Z,4.10
2022-11-29T13:27:32.918Z,4.20
2022-11-29T13:28:37.327Z,3.73
2022-11-29T13:29:38.958Z,4.30
2022-11-29T13:30:40.870Z,3.93
2022-11-29T13:31:44.023Z,4.47
2022-11-29T13:33:12.101Z,4.40
2022-11-29T13:34:17.126Z,4.00
2022-11-29T13:35:25.417Z,4.50
2022-11-29T13:36:39.056Z,4.43
2022-11-29T13:37:55.181Z,4.53
2022-11-29T13:39:08.849Z,4.10
2022-11-29T13:40:30.557Z,3.77
2022-11-29T13:41:45.739Z,4.10
2022-11-29T13:43:03.082Z,4.17
2022-11-29T13:44:16.042Z,4.07
2022-11-29T13:45:40.256Z,4.13
2022-11-29T13:46:41.840Z,3.70
2022-11-29T13:48:27.601Z,3.93
2022-11-29T13:49:51.195Z,3.77
2022-11-29T13:50:52.863Z,3.70
2022-11-29T13:52:06.262Z,3.63
2022-11-29T13:53:23.603Z,3.33
2022-11-29T13:54:27.922Z,3.63
2022-11-29T13:55:31.196Z,3.73
2022-11-29T13:56:46.422Z,3.77
2022-11-29T13:58:15.067Z,3.33
2022-11-29T13:59:22.574Z,4.10
2022-11-29T14:00:34.669Z,4.40
2022-11-29T14:01:56.675Z,3.80
2022-11-29T14:03:23.892Z,3.63
2022-11-29T14:04:39.169Z,4.30
2022-11-29T14:05:41.311Z,3.93
2022-11-29T14:06:43.170Z,3.87
2022-11-29T14:08:54.578Z,4.20
2022-11-29T14:10:02.275Z,4.13
2022-11-29T14:11:06.651Z,4.10
2022-11-29T14:12:39.847Z,4.63
2022-11-29T14:13:41.336Z,4.20
2022-11-29T14:15:00.793Z,4.30
2022-11-29T14:16:04.959Z,4.60
2022-11-29T14:17:29.067Z,4.63
2022-11-29T14:18:36.548Z,4.57
2022-11-29T14:19:38.170Z,5.40
2022-11-29T14:20:39.686Z,4.33
2022-11-29T14:21:59.240Z,4.93
2022-11-29T14:23:06.786Z,5.20
2022-11-29T14:24:35.162Z,5.63
2022-11-29T14:25:52.587Z,4.90
2022-11-29T14:27:06.693Z,5.57
2022-11-29T14:28:14.224Z,5.33
2022-11-29T14:29:55.196Z,5.03
2022-11-29T14:31:01.603Z,5.00
2022-11-29T14:32:03.769Z,5.40
2022-11-29T14:33:21.606Z,5.07
2022-11-29T14:34:29.815Z,5.07
2022-11-29T14:35:37.529Z,5.30
2022-11-29T14:36:52.243Z,5.23
2022-11-29T14:38:31.158Z,5.60
2022-11-29T14:39:49.097Z,5.10
2022-11-29T14:41:03.614Z,5.27
2022-11-29T14:42:20.047Z,5.77
2022-11-29T14:43:37.985Z,5.60
2022-11-29T14:44:48.618Z,6.50
2022-11-29T14:46:15.974Z,6.13
2022-11-29T14:47:24.417Z,6.30
2022-11-29T14:48:27.958Z,6.80
2022-11-29T14:49:31.515Z,6.87
2022-11-29T14:50:37.396Z,7.13
2022-11-29T14:51:39.555Z,6.83
2022-11-29T14:52:51.365Z,7.57
2022-11-29T14:54:02.068Z,6.60
2022-11-29T14:55:08.258Z,8.30
2022-11-29T14:56:31.159Z,7.17
2022-11-29T14:57:50.564Z,7.57
2022-11-29T14:59:29.801Z,7.93
2022-11-29T15:00:55.053Z,7.67
2022-11-29T15:01:57.071Z,7.57
2022-11-29T15:03:03.674Z,6.47
2022-11-29T15:04:06.230Z,6.83
2022-11-29T15:05:10.429Z,7.10
2022-11-29T15:06:17.142Z,6.10
2022-11-29T15:07:25.552Z,6.20
2022-11-29T15:08:27.276Z,6.07
2022-11-29T15:09:32.115Z,6.60
2022-11-29T15:10:39.015Z,6.37
2022-11-29T15:11:50.162Z,6.07
2022-11-29T15:12:52.507Z,6.50
2022-11-29T15:14:19.039Z,6.03
2022-11-29T15:15:29.547Z,6.60
2022-11-29T15:17:15.924Z,5.80
2022-11-29T15:18:27.029Z,6.33
2022-11-29T15:19:31.588Z,6.40
2022-11-29T15:20:37.474Z,5.97
2022-11-29T15:21:54.166Z,6.90
2022-11-29T15:23:00.890Z,6.33
2022-11-29T15:24:15.588Z,5.80
2022-11-29T15:25:23.937Z,6.70
2022-11-29T15:26:25.460Z,7.07
2022-11-29T15:27:27.077Z,6.73
2022-11-29T15:28:29.735Z,6.97
2022-11-29T15:29:31.680Z,7.40
2022-11-29T15:30:36.426Z,6.90
2022-11-29T15:31:42.099Z,7.00
2022-11-29T15:32:44.149Z,6.30
2022-11-29T15:33:48.752Z,6.97
2022-11-29T15:34:53.358Z,7.30
2022-11-29T15:36:03.191Z,6.93
2022-11-29T15:37:04.898Z,6.67
2022-11-29T15:38:06.459Z,7.20
2022-11-29T15:39:25.615Z,7.13
2022-11-29T15:40:36.168Z,7.27
2022-11-29T15:41:45.556Z,6.80
2022-11-29T15:42:52.759Z,6.87
2022-11-29T15:43:58.326Z,6.67
2022-11-29T15:44:59.879Z,6.93
2022-11-29T15:46:01.650Z,7.10
2022-11-29T15:47:16.092Z,7.27